Chas. Guidry — WDI5643 — position and weather

sailwx.info

Track history (hours):
 
Tides and Currents Weather Stations Pressure Air Temp Water Temp Dewpoint Dewpoint Depression Visibility Wind Speed Wind Dir Waves Ship Positions

Chas. Guidry

Owner: Danielle Marine Towing VI, LLC, Cut Off, LA. More information available from US FCC via Universal Licensing System and Coast Guard Vessel Documentation Center.

Last reported at 2017-Nov-23 01:12 UTC. Time now 2017-Nov-23 05:24 UTC.
Position N 29°44' W 095°09'.

Length 66 m; draft 2.5 m.

Type: . MMSI: 367710650.

Date/timePositionNaut miles runAvg speedWind from/ knotsBaromVisibWave heightAir tempDewpointWater temp
2017-Nov-23 01:12N 29°44' W 095°09'12 2.0
2017-Nov-22 19:01N 29°37' W 094°58'  
2017-Nov-19 12:33N 30°04' W 093°30'1 6.2
2017-Nov-19 12:28N 30°04' W 093°29'3 6.0
2017-Nov-19 12:00N 30°04' W 093°26'3 6.0
2017-Nov-19 11:30N 30°04' W 093°23'2 4.8
2017-Nov-19 11:00N 30°05' W 093°20'2 4.3
2017-Nov-19 10:30N 30°06' W 093°18'1 1.9
2017-Nov-19 10:00N 30°05' W 093°17'1 1.3
2017-Nov-19 09:30N 30°05' W 093°17'0 0.0
2017-Nov-19 09:00N 30°05' W 093°17'0 0.0
2017-Nov-19 08:30N 30°05' W 093°17'0 0.0
2017-Nov-19 08:00N 30°05' W 093°17'0 0.0
2017-Nov-19 07:30N 30°05' W 093°17'1 1.7
2017-Nov-19 07:00N 30°04' W 093°16'2 4.8
2017-Nov-19 06:30N 30°02' W 093°15'3 5.8
2017-Nov-19 06:00N 29°60' W 093°13'48 5.9
2017-Nov-18 21:53N 29°50' W 092°18'2 6.0
2017-Nov-18 21:30N 29°49' W 092°16'3 6.3
2017-Nov-18 21:00N 29°47' W 092°13'2 3.6
2017-Nov-18 20:30N 29°47' W 092°11'2 5.0
2017-Nov-18 20:00N 29°47' W 092°08'70 5.7
2017-Nov-18 07:44N 29°32' W 090°50'2 6.8
2017-Nov-18 07:30N 29°32' W 090°48'3 5.9
2017-Nov-18 07:00N 29°33' W 090°45'3 5.7
2017-Nov-18 06:30N 29°35' W 090°43'2 3.8
2017-Nov-18 06:00N 29°36' W 090°41'3 5.9
2017-Nov-18 05:30N 29°35' W 090°38'5 0.1
2017-Nov-16 15:36N 29°34' W 090°32'1 6.2
2017-Nov-16 15:30N 29°34' W 090°33'3 5.9
2017-Nov-16 15:00N 29°35' W 090°36'3 5.4
2017-Nov-16 14:30N 29°36' W 090°39'0 0.5
2017-Nov-16 14:00N 29°36' W 090°39'0 0.0
2017-Nov-16 13:27N 29°36' W 090°39'0 0.0
2017-Nov-16 12:56N 29°36' W 090°39'0 0.0
2017-Nov-16 12:30N 29°36' W 090°39'0 0.0
2017-Nov-16 08:50N 29°36' W 090°39'0 0.0
2017-Nov-16 08:30N 29°36' W 090°39'0 0.0
2017-Nov-16 07:56N 29°36' W 090°39'0 0.0
2017-Nov-16 07:27N 29°36' W 090°39'1 1.5
2017-Nov-16 07:00N 29°36' W 090°40'2 4.5
2017-Nov-16 06:30N 29°36' W 090°43'2 4.7
2017-Nov-16 06:00N 29°34' W 090°44'2 3.2
2017-Nov-16 05:30N 29°33' W 090°45'3 5.8
2017-Nov-16 05:00N 29°32' W 090°48'66 4.5
2017-Nov-15 14:17N 29°49' W 092°02'3 6.2
2017-Nov-15 13:46N 29°48' W 092°05'2 6.3
2017-Nov-15 13:30N 29°47' W 092°07'3 6.4
2017-Nov-15 13:00N 29°47' W 092°10'2 3.5
2017-Nov-15 12:30N 29°47' W 092°12'0 0.1
2017-Nov-15 12:00N 29°47' W 092°12'2 4.2
2017-Nov-15 11:30N 29°48' W 092°15'0 0.7
2017-Nov-15 11:00N 29°48' W 092°15'0 0.1
2017-Nov-15 10:30N 29°48' W 092°15'1 2.0
2017-Nov-15 10:00N 29°49' W 092°16'2 4.0
2017-Nov-15 09:30N 29°50' W 092°18'1 2.7
2017-Nov-15 09:00N 29°50' W 092°19'44 4.5
2017-Nov-14 23:15N 29°56' W 093°10'1 5.3
2017-Nov-14 23:00N 29°57' W 093°11'3 5.2
2017-Nov-14 22:30N 29°59' W 093°13'2 4.4
2017-Nov-14 22:00N 30°01' W 093°14'2 4.9
2017-Nov-14 21:30N 30°03' W 093°16'1 2.1
2017-Nov-14 21:00N 30°04' W 093°16'1 1.4
2017-Nov-14 20:30N 30°04' W 093°16'2 3.0
2017-Nov-14 20:00N 30°05' W 093°18'0 1.0
2017-Nov-14 19:30N 30°06' W 093°18'0 0.0
2017-Nov-14 19:00N 30°06' W 093°18'0 0.0
2017-Nov-14 18:30N 30°06' W 093°18'1 2.0
2017-Nov-14 18:00N 30°06' W 093°19'3 5.4
2017-Nov-14 17:30N 30°04' W 093°21'3 5.9
2017-Nov-14 17:00N 30°04' W 093°25'3 5.8
2017-Nov-14 16:30N 30°04' W 093°28'81 4.3
2017-Nov-13 21:35N 29°34' W 094°56'  
Track history (hours):
 
Tides and Currents Weather Stations Pressure Air Temp Water Temp Dewpoint Dewpoint Depression Visibility Wind Speed Wind Dir Waves Ship Positions

Chas. Guidry

Owner: Danielle Marine Towing VI, LLC, Cut Off, LA. More information available from US FCC via Universal Licensing System and Coast Guard Vessel Documentation Center.

Last reported at 2017-Nov-23 01:12 UTC. Time now 2017-Nov-23 05:24 UTC.
Position N 29°44' W 095°09'.

Length 66 m; draft 2.5 m.

Type: . MMSI: 367710650.

Date/timePositionNaut miles runAvg speedWind from/ knotsBaromVisibWave heightAir tempDewpointWater temp
2017-Nov-23 01:12N 29°44' W 095°09'12 2.0
2017-Nov-22 19:01N 29°37' W 094°58'  
2017-Nov-19 12:33N 30°04' W 093°30'1 6.2
2017-Nov-19 12:28N 30°04' W 093°29'3 6.0
2017-Nov-19 12:00N 30°04' W 093°26'3 6.0
2017-Nov-19 11:30N 30°04' W 093°23'2 4.8
2017-Nov-19 11:00N 30°05' W 093°20'2 4.3
2017-Nov-19 10:30N 30°06' W 093°18'1 1.9
2017-Nov-19 10:00N 30°05' W 093°17'1 1.3
2017-Nov-19 09:30N 30°05' W 093°17'0 0.0
2017-Nov-19 09:00N 30°05' W 093°17'0 0.0
2017-Nov-19 08:30N 30°05' W 093°17'0 0.0
2017-Nov-19 08:00N 30°05' W 093°17'0 0.0
2017-Nov-19 07:30N 30°05' W 093°17'1 1.7
2017-Nov-19 07:00N 30°04' W 093°16'2 4.8
2017-Nov-19 06:30N 30°02' W 093°15'3 5.8
2017-Nov-19 06:00N 29°60' W 093°13'48 5.9
2017-Nov-18 21:53N 29°50' W 092°18'2 6.0
2017-Nov-18 21:30N 29°49' W 092°16'3 6.3
2017-Nov-18 21:00N 29°47' W 092°13'2 3.6
2017-Nov-18 20:30N 29°47' W 092°11'2 5.0
2017-Nov-18 20:00N 29°47' W 092°08'70 5.7
2017-Nov-18 07:44N 29°32' W 090°50'2 6.8
2017-Nov-18 07:30N 29°32' W 090°48'3 5.9
2017-Nov-18 07:00N 29°33' W 090°45'3 5.7
2017-Nov-18 06:30N 29°35' W 090°43'2 3.8
2017-Nov-18 06:00N 29°36' W 090°41'3 5.9
2017-Nov-18 05:30N 29°35' W 090°38'5 0.1
2017-Nov-16 15:36N 29°34' W 090°32'1 6.2
2017-Nov-16 15:30N 29°34' W 090°33'3 5.9
2017-Nov-16 15:00N 29°35' W 090°36'3 5.4
2017-Nov-16 14:30N 29°36' W 090°39'0 0.5
2017-Nov-16 14:00N 29°36' W 090°39'0 0.0
2017-Nov-16 13:27N 29°36' W 090°39'0 0.0
2017-Nov-16 12:56N 29°36' W 090°39'0 0.0
2017-Nov-16 12:30N 29°36' W 090°39'0 0.0
2017-Nov-16 08:50N 29°36' W 090°39'0 0.0
2017-Nov-16 08:30N 29°36' W 090°39'0 0.0
2017-Nov-16 07:56N 29°36' W 090°39'0 0.0
2017-Nov-16 07:27N 29°36' W 090°39'1 1.5
2017-Nov-16 07:00N 29°36' W 090°40'2 4.5
2017-Nov-16 06:30N 29°36' W 090°43'2 4.7
2017-Nov-16 06:00N 29°34' W 090°44'2 3.2
2017-Nov-16 05:30N 29°33' W 090°45'3 5.8
2017-Nov-16 05:00N 29°32' W 090°48'66 4.5
2017-Nov-15 14:17N 29°49' W 092°02'3 6.2
2017-Nov-15 13:46N 29°48' W 092°05'2 6.3
2017-Nov-15 13:30N 29°47' W 092°07'3 6.4
2017-Nov-15 13:00N 29°47' W 092°10'2 3.5
2017-Nov-15 12:30N 29°47' W 092°12'0 0.1
2017-Nov-15 12:00N 29°47' W 092°12'2 4.2
2017-Nov-15 11:30N 29°48' W 092°15'0 0.7
2017-Nov-15 11:00N 29°48' W 092°15'0 0.1
2017-Nov-15 10:30N 29°48' W 092°15'1 2.0
2017-Nov-15 10:00N 29°49' W 092°16'2 4.0
2017-Nov-15 09:30N 29°50' W 092°18'1 2.7
2017-Nov-15 09:00N 29°50' W 092°19'44 4.5
2017-Nov-14 23:15N 29°56' W 093°10'1 5.3
2017-Nov-14 23:00N 29°57' W 093°11'3 5.2
2017-Nov-14 22:30N 29°59' W 093°13'2 4.4
2017-Nov-14 22:00N 30°01' W 093°14'2 4.9
2017-Nov-14 21:30N 30°03' W 093°16'1 2.1
2017-Nov-14 21:00N 30°04' W 093°16'1 1.4
2017-Nov-14 20:30N 30°04' W 093°16'2 3.0
2017-Nov-14 20:00N 30°05' W 093°18'0 1.0
2017-Nov-14 19:30N 30°06' W 093°18'0 0.0
2017-Nov-14 19:00N 30°06' W 093°18'0 0.0
2017-Nov-14 18:30N 30°06' W 093°18'1 2.0
2017-Nov-14 18:00N 30°06' W 093°19'3 5.4
2017-Nov-14 17:30N 30°04' W 093°21'3 5.9
2017-Nov-14 17:00N 30°04' W 093°25'3 5.8
2017-Nov-14 16:30N 30°04' W 093°28'81 4.3
2017-Nov-13 21:35N 29°34' W 094°56'  

Dump ship's entire track history